Wyoming, Rhode Island
Current Conditions -  °F | °C
As of 11:53 AM on Thursday 23 Oct 2014 (Local Time) from KWST Reporting Station
Overcast Overcast  
Wind Chill: 57°   Ceiling: 1800
Heat Index: 57°   Visibility: 10mi
Dew Point: 49°   Wind: 15mph
Humidity: 74%   Direction: 10°N
Pressure: 29.59"   Gusts: 31mph
Location:  41.52°N, 71.7°W
Report Text: KWST 231553Z AUTO 01013G27KT 10SM OVC018 14/09 A2959 RMK AO2 PK WND 36028/1541 SLP020 T01390094
Loading
Personal Weather Stations






























Interactive Weather Map
Tropical Storm Tracking
New forecast layout! Learn more

10-Day Weather Forecast

Advertisements
Track Severe Weather on mobile